createdAt,value
2022-09-22T00:01:31.912Z,15.70
2022-09-22T00:04:02.070Z,15.80
2022-09-22T00:06:33.459Z,15.70
2022-09-22T00:09:03.124Z,15.80
2022-09-22T00:11:36.013Z,15.60
2022-09-22T00:14:06.583Z,15.60
2022-09-22T00:16:37.393Z,15.40
2022-09-22T00:19:06.804Z,15.30
2022-09-22T00:21:36.463Z,15.20
2022-09-22T00:24:07.054Z,15.10
2022-09-22T00:26:35.887Z,15.20
2022-09-22T00:29:04.603Z,15.20
2022-09-22T00:31:32.512Z,15.20
2022-09-22T00:34:00.370Z,15.20
2022-09-22T00:36:29.377Z,15.20
2022-09-22T00:38:59.700Z,15.20
2022-09-22T00:41:29.608Z,15.10
2022-09-22T00:44:32.558Z,15.10
2022-09-22T00:47:07.110Z,15.10
2022-09-22T00:49:42.611Z,15.20
2022-09-22T00:52:12.301Z,15.20
2022-09-22T00:54:41.734Z,15.30
2022-09-22T00:57:14.030Z,15.30
2022-09-22T00:59:43.324Z,15.10
2022-09-22T01:02:11.803Z,15.10
2022-09-22T01:04:40.650Z,15.00
2022-09-22T01:07:09.442Z,15.00
2022-09-22T01:09:37.427Z,15.00
2022-09-22T01:12:07.096Z,14.90
2022-09-22T01:14:51.764Z,14.80
2022-09-22T01:17:29.308Z,14.80
2022-09-22T01:20:49.213Z,14.70
2022-09-22T01:23:55.029Z,14.70
2022-09-22T01:26:44.198Z,14.70
2022-09-22T01:29:38.851Z,14.70
2022-09-22T01:32:17.096Z,14.60
2022-09-22T01:34:52.852Z,14.60
2022-09-22T01:37:28.845Z,14.60
2022-09-22T01:40:03.165Z,14.60
2022-09-22T01:42:38.265Z,14.60
2022-09-22T01:45:10.046Z,14.40
2022-09-22T01:47:42.738Z,14.40
2022-09-22T01:50:18.238Z,14.10
2022-09-22T01:52:46.619Z,13.90
2022-09-22T01:55:20.261Z,13.90
2022-09-22T01:57:52.504Z,13.80
2022-09-22T02:00:23.118Z,13.90
2022-09-22T02:02:58.104Z,14.10
2022-09-22T02:05:30.822Z,14.10
2022-09-22T02:08:02.850Z,14.10
2022-09-22T02:10:36.472Z,14.10
2022-09-22T02:13:04.439Z,14.10
2022-09-22T02:15:50.193Z,14.10
2022-09-22T02:18:24.248Z,14.10
2022-09-22T02:20:52.806Z,14.10
2022-09-22T02:23:21.047Z,14.10
2022-09-22T02:25:50.096Z,14.10
2022-09-22T02:28:21.318Z,14.10
2022-09-22T02:31:10.823Z,14.00
2022-09-22T02:33:43.056Z,14.00
2022-09-22T02:36:25.167Z,14.00
2022-09-22T02:39:00.649Z,14.10
2022-09-22T02:41:38.147Z,14.10
2022-09-22T02:44:11.809Z,13.90
2022-09-22T02:46:44.305Z,13.80
2022-09-22T02:49:17.585Z,13.60
2022-09-22T02:51:46.736Z,13.60
2022-09-22T02:54:14.934Z,13.70
2022-09-22T02:56:42.965Z,13.70
2022-09-22T02:59:11.094Z,13.80
2022-09-22T03:01:39.273Z,13.70
2022-09-22T03:04:07.407Z,13.70
2022-09-22T03:06:36.676Z,13.80
2022-09-22T03:09:04.785Z,13.70
2022-09-22T03:11:32.681Z,13.70
2022-09-22T03:14:00.754Z,13.70
2022-09-22T03:16:28.603Z,13.60
2022-09-22T03:18:57.352Z,13.60
2022-09-22T03:21:25.312Z,13.70
2022-09-22T03:23:54.568Z,13.60
2022-09-22T03:26:22.411Z,13.50
2022-09-22T03:28:50.270Z,13.50
2022-09-22T03:31:18.230Z,13.20
2022-09-22T03:33:49.324Z,13.10
2022-09-22T03:36:20.465Z,13.00
2022-09-22T03:38:48.346Z,13.10
2022-09-22T03:41:17.579Z,13.20
2022-09-22T03:43:45.435Z,13.50
2022-09-22T03:46:13.860Z,13.70
2022-09-22T03:48:45.139Z,13.80
2022-09-22T03:51:13.487Z,14.00
2022-09-22T03:53:41.356Z,14.10
2022-09-22T03:56:11.211Z,14.00
2022-09-22T03:58:41.538Z,14.00
2022-09-22T04:01:11.111Z,13.90
2022-09-22T04:03:39.512Z,13.90
2022-09-22T04:06:08.018Z,13.90
2022-09-22T04:08:35.895Z,13.90
2022-09-22T04:11:03.990Z,13.80
2022-09-22T04:13:31.897Z,13.70
2022-09-22T04:16:01.142Z,13.80
2022-09-22T04:18:29.977Z,13.70
2022-09-22T04:20:59.007Z,13.80
2022-09-22T04:23:27.477Z,13.80
2022-09-22T04:25:55.382Z,13.70
2022-09-22T04:28:23.440Z,13.60
2022-09-22T04:30:51.777Z,13.20
2022-09-22T04:33:21.350Z,13.00
2022-09-22T04:35:49.714Z,13.00
2022-09-22T04:38:17.977Z,13.10
2022-09-22T04:40:46.786Z,13.20
2022-09-22T04:43:14.635Z,13.40
2022-09-22T04:45:45.104Z,13.40
2022-09-22T04:48:13.106Z,13.40
2022-09-22T04:50:47.172Z,13.40
2022-09-22T04:53:16.103Z,13.40
2022-09-22T04:55:43.943Z,13.40
2022-09-22T04:58:11.976Z,13.20
2022-09-22T05:00:39.841Z,13.30
2022-09-22T05:03:09.898Z,13.00
2022-09-22T05:05:38.493Z,12.60
2022-09-22T05:08:07.825Z,12.30
2022-09-22T05:10:36.696Z,11.90
2022-09-22T05:13:05.707Z,11.80
2022-09-22T05:15:34.621Z,11.70
2022-09-22T05:18:02.718Z,11.70
2022-09-22T05:20:30.612Z,11.60
2022-09-22T05:22:58.548Z,11.70
2022-09-22T05:25:27.818Z,11.80
2022-09-22T05:27:56.734Z,11.90
2022-09-22T05:30:26.774Z,12.00
2022-09-22T05:32:54.885Z,12.00
2022-09-22T05:35:24.640Z,12.00
2022-09-22T05:37:53.781Z,12.00
2022-09-22T05:40:23.957Z,11.70
2022-09-22T05:42:54.444Z,11.40
2022-09-22T05:45:22.807Z,11.20
2022-09-22T05:47:50.761Z,11.40
2022-09-22T05:50:19.948Z,11.40
2022-09-22T05:52:48.119Z,11.40
2022-09-22T05:55:16.016Z,11.80
2022-09-22T05:57:44.557Z,12.20
2022-09-22T06:00:14.727Z,12.40
2022-09-22T06:02:45.034Z,12.60
2022-09-22T06:05:16.185Z,12.80
2022-09-22T06:07:45.464Z,12.80
2022-09-22T06:10:13.564Z,12.90
2022-09-22T06:12:41.593Z,13.40
2022-09-22T06:15:10.150Z,13.70
2022-09-22T06:17:39.692Z,13.10
2022-09-22T06:20:08.446Z,11.90
2022-09-22T06:22:36.384Z,12.30
2022-09-22T06:25:04.633Z,12.40
2022-09-22T06:27:32.498Z,12.60
2022-09-22T06:30:00.376Z,12.60
2022-09-22T06:32:28.320Z,12.50
2022-09-22T06:35:01.127Z,12.40
2022-09-22T06:37:29.009Z,12.10
2022-09-22T06:39:56.859Z,11.50
2022-09-22T06:42:24.727Z,11.70
2022-09-22T06:44:53.424Z,12.10
2022-09-22T06:47:21.286Z,12.40
2022-09-22T06:49:49.143Z,12.80
2022-09-22T06:52:18.441Z,13.00
2022-09-22T06:54:46.313Z,13.60
2022-09-22T06:57:14.178Z,13.80
2022-09-22T06:59:42.062Z,13.90
2022-09-22T07:02:11.077Z,14.00
2022-09-22T07:04:39.087Z,14.00
2022-09-22T07:07:06.930Z,14.10
2022-09-22T07:09:36.135Z,14.20
2022-09-22T07:12:03.973Z,14.50
2022-09-22T07:14:32.639Z,14.40
2022-09-22T07:17:00.834Z,14.40
2022-09-22T07:19:28.690Z,14.30
2022-09-22T07:21:57.022Z,14.30
2022-09-22T07:24:27.757Z,14.30
2022-09-22T07:26:57.001Z,14.30
2022-09-22T07:29:24.921Z,14.30
2022-09-22T07:31:53.305Z,14.30
2022-09-22T07:34:21.227Z,14.40
2022-09-22T07:36:49.921Z,14.30
2022-09-22T07:39:17.827Z,14.30
2022-09-22T07:41:46.719Z,14.30
2022-09-22T07:44:34.486Z,14.30
2022-09-22T07:47:04.758Z,14.40
2022-09-22T07:49:32.824Z,14.40
2022-09-22T07:52:00.991Z,14.40
2022-09-22T07:54:29.263Z,14.20
2022-09-22T07:56:59.259Z,14.10
2022-09-22T07:59:28.831Z,14.00
2022-09-22T08:01:56.751Z,13.90
2022-09-22T08:04:26.369Z,13.80
2022-09-22T08:06:56.258Z,13.60
2022-09-22T08:09:25.265Z,13.70
2022-09-22T08:11:53.574Z,13.70
2022-09-22T08:14:23.453Z,13.90
2022-09-22T08:16:54.030Z,14.00
2022-09-22T08:19:24.047Z,14.20
2022-09-22T08:21:53.931Z,14.50
2022-09-22T08:24:22.629Z,14.70
2022-09-22T08:26:53.278Z,14.90
2022-09-22T08:29:22.039Z,15.00
2022-09-22T08:31:51.531Z,15.10
2022-09-22T08:34:21.759Z,15.10
2022-09-22T08:36:49.846Z,15.10
2022-09-22T08:39:18.943Z,15.20
2022-09-22T08:42:00.051Z,15.30
2022-09-22T08:44:32.775Z,15.30
2022-09-22T08:47:02.743Z,15.40
2022-09-22T08:49:55.122Z,15.50
2022-09-22T08:52:29.118Z,15.50
2022-09-22T08:54:59.426Z,15.60
2022-09-22T08:57:44.992Z,15.90
2022-09-22T09:00:15.586Z,16.20
2022-09-22T09:02:46.568Z,16.20
2022-09-22T09:06:04.606Z,16.30
2022-09-22T09:09:12.472Z,16.30
2022-09-22T09:12:06.751Z,16.30
2022-09-22T09:14:55.922Z,16.40
2022-09-22T09:17:28.526Z,16.40
2022-09-22T09:20:01.179Z,16.50
2022-09-22T09:22:34.628Z,16.50
2022-09-22T09:27:57.115Z,16.50
2022-09-22T09:30:25.198Z,16.60
2022-09-22T09:32:56.484Z,16.70
2022-09-22T09:35:32.209Z,16.80
2022-09-22T09:38:03.613Z,16.90
2022-09-22T09:40:31.487Z,16.90
2022-09-22T09:43:03.609Z,16.90
2022-09-22T09:45:38.883Z,16.70
2022-09-22T09:48:20.899Z,16.60
2022-09-22T09:50:48.847Z,16.90
2022-09-22T09:53:31.884Z,16.90
2022-09-22T09:55:59.834Z,16.90
2022-09-22T09:58:45.314Z,17.00
2022-09-22T10:01:15.271Z,17.40
2022-09-22T10:03:46.972Z,17.50
2022-09-22T10:06:16.137Z,17.50
2022-09-22T10:08:49.226Z,17.70
2022-09-22T10:11:17.334Z,17.80
2022-09-22T10:13:45.356Z,17.70
2022-09-22T10:16:33.376Z,17.70
2022-09-22T10:19:21.457Z,17.40
2022-09-22T10:21:49.892Z,17.50
2022-09-22T10:24:31.393Z,17.60
2022-09-22T10:27:02.562Z,17.70
2022-09-22T10:29:33.265Z,17.70
2022-09-22T10:32:03.986Z,17.50
2022-09-22T10:34:33.877Z,17.50
2022-09-22T10:37:03.983Z,17.70
2022-09-22T10:39:45.002Z,18.10
2022-09-22T10:42:38.198Z,18.30
2022-09-22T10:45:08.362Z,18.50
2022-09-22T10:47:52.877Z,18.40
2022-09-22T10:50:59.768Z,18.60
2022-09-22T10:53:42.976Z,18.90
2022-09-22T10:56:20.852Z,18.90
2022-09-22T10:59:14.766Z,18.80
2022-09-22T11:01:59.410Z,18.70
2022-09-22T11:05:00.150Z,18.60
2022-09-22T11:08:10.410Z,18.80
2022-09-22T11:11:02.413Z,18.90
2022-09-22T11:13:44.449Z,19.10
2022-09-22T11:16:34.199Z,19.10
2022-09-22T11:19:21.572Z,18.90
2022-09-22T11:22:07.270Z,18.60
2022-09-22T11:24:55.491Z,18.40
2022-09-22T11:27:36.433Z,18.10
2022-09-22T11:30:20.595Z,17.90
2022-09-22T11:33:10.503Z,18.00
2022-09-22T11:35:56.445Z,18.10
2022-09-22T11:38:43.961Z,18.50
2022-09-22T11:41:25.880Z,18.60
2022-09-22T11:44:29.559Z,19.00
2022-09-22T11:47:19.217Z,19.30
2022-09-22T11:50:08.778Z,19.50
2022-09-22T11:52:50.339Z,19.70
2022-09-22T11:55:26.743Z,19.40
2022-09-22T11:57:59.495Z,18.90
2022-09-22T12:00:34.474Z,18.70
2022-09-22T12:03:10.384Z,18.70
2022-09-22T12:05:42.084Z,18.70
2022-09-22T12:08:14.266Z,18.70
2022-09-22T12:10:44.548Z,18.70
2022-09-22T12:13:16.326Z,18.70
2022-09-22T12:15:51.976Z,18.60
2022-09-22T12:18:27.495Z,18.40
2022-09-22T12:21:01.117Z,18.20
2022-09-22T12:23:38.577Z,18.00
2022-09-22T12:26:09.096Z,18.00
2022-09-22T12:28:41.072Z,17.90
2022-09-22T12:31:12.673Z,17.90
2022-09-22T12:33:49.799Z,17.80
2022-09-22T12:36:20.039Z,17.90
2022-09-22T12:38:47.985Z,17.90
2022-09-22T12:41:20.141Z,18.10
2022-09-22T12:43:48.696Z,18.30
2022-09-22T12:46:29.836Z,18.20
2022-09-22T12:48:59.106Z,18.30
2022-09-22T12:51:32.466Z,18.50
2022-09-22T12:54:38.757Z,18.40
2022-09-22T12:57:24.487Z,18.40
2022-09-22T13:00:12.631Z,18.30
2022-09-22T13:02:45.955Z,18.50
2022-09-22T13:05:46.468Z,18.80
2022-09-22T13:08:22.802Z,19.40
2022-09-22T13:10:59.417Z,19.90
2022-09-22T13:13:39.697Z,19.60
2022-09-22T13:16:36.324Z,19.90
2022-09-22T13:19:10.394Z,20.30
2022-09-22T13:21:40.290Z,20.60
2022-09-22T13:24:23.645Z,20.70
2022-09-22T13:27:05.597Z,20.80
2022-09-22T13:29:34.389Z,20.80
2022-09-22T13:32:18.578Z,20.70
2022-09-22T13:34:46.802Z,20.70
2022-09-22T13:37:20.593Z,20.60
2022-09-22T13:39:51.521Z,20.20
2022-09-22T13:42:23.324Z,20.00
2022-09-22T13:44:59.556Z,20.00
2022-09-22T13:47:28.056Z,20.20
2022-09-22T13:49:57.696Z,20.00
2022-09-22T13:52:29.838Z,20.20
2022-09-22T13:55:01.143Z,20.30
2022-09-22T13:57:31.517Z,20.10
2022-09-22T14:00:01.244Z,20.20
2022-09-22T14:02:32.449Z,20.40
2022-09-22T14:05:03.781Z,20.60
2022-09-22T14:07:49.624Z,20.80
2022-09-22T14:10:27.161Z,20.90
2022-09-22T14:12:55.692Z,20.90
2022-09-22T14:15:43.605Z,20.80
2022-09-22T14:18:18.040Z,20.70
2022-09-22T14:20:46.594Z,20.80
2022-09-22T14:23:19.382Z,20.70
2022-09-22T14:25:47.657Z,20.60
2022-09-22T14:28:21.884Z,21.00
2022-09-22T14:30:50.626Z,21.30
2022-09-22T14:33:22.903Z,21.40
2022-09-22T14:35:52.845Z,21.50
2022-09-22T14:38:24.580Z,21.50
2022-09-22T14:40:54.331Z,21.30
2022-09-22T14:43:25.481Z,21.50
2022-09-22T14:45:58.023Z,21.40
2022-09-22T14:48:30.270Z,21.40
2022-09-22T14:51:02.361Z,21.40
2022-09-22T14:53:35.061Z,20.90
2022-09-22T14:56:07.853Z,20.20
2022-09-22T14:58:40.610Z,19.80
2022-09-22T15:01:38.780Z,19.90
2022-09-22T15:04:10.869Z,20.30
2022-09-22T15:06:39.980Z,20.50
2022-09-22T15:09:20.103Z,20.50
2022-09-22T15:11:49.752Z,20.90
2022-09-22T15:14:42.973Z,21.20
2022-09-22T15:17:54.868Z,21.60
2022-09-22T15:20:24.781Z,21.70
2022-09-22T15:22:54.004Z,21.90
2022-09-22T15:25:23.981Z,21.80
2022-09-22T15:27:53.415Z,21.80
2022-09-22T15:30:22.604Z,21.80
2022-09-22T15:32:50.615Z,21.70
2022-09-22T15:35:20.248Z,21.90
2022-09-22T15:37:50.123Z,21.90
2022-09-22T15:40:21.121Z,21.70
2022-09-22T15:43:11.609Z,21.90
2022-09-22T15:45:48.537Z,22.10
2022-09-22T15:48:31.371Z,22.30
2022-09-22T15:51:03.683Z,22.50
2022-09-22T15:53:32.298Z,22.40
2022-09-22T15:56:04.208Z,22.40
2022-09-22T15:58:36.711Z,22.30
2022-09-22T16:01:05.702Z,22.30
2022-09-22T16:03:40.244Z,22.30
2022-09-22T16:06:12.577Z,22.50
2022-09-22T16:08:43.795Z,22.40
2022-09-22T16:11:14.514Z,22.30
2022-09-22T16:13:44.468Z,22.30
2022-09-22T16:16:13.162Z,22.30
2022-09-22T16:18:41.765Z,22.30
2022-09-22T16:21:19.698Z,22.30
2022-09-22T16:23:47.550Z,22.20
2022-09-22T16:26:15.436Z,22.10
2022-09-22T16:28:44.635Z,22.10
2022-09-22T16:31:13.436Z,22.00
2022-09-22T16:33:41.356Z,22.00
2022-09-22T16:36:09.407Z,22.00
2022-09-22T16:38:39.365Z,22.00
2022-09-22T16:41:17.892Z,22.00
2022-09-22T16:43:47.404Z,22.00
2022-09-22T16:46:28.364Z,22.00
2022-09-22T16:48:58.808Z,22.00
2022-09-22T16:51:27.294Z,22.00
2022-09-22T16:53:55.230Z,22.00
2022-09-22T16:56:24.818Z,21.90
2022-09-22T16:58:55.190Z,21.90
2022-09-22T17:01:23.761Z,21.80
2022-09-22T17:03:53.725Z,21.80
2022-09-22T17:06:25.023Z,21.80
2022-09-22T17:08:53.910Z,21.80
2022-09-22T17:11:24.549Z,21.70
2022-09-22T17:13:55.600Z,21.70
2022-09-22T17:16:25.721Z,21.60
2022-09-22T17:18:54.347Z,21.60
2022-09-22T17:21:22.790Z,21.60
2022-09-22T17:23:51.815Z,21.60
2022-09-22T17:26:21.670Z,21.50
2022-09-22T17:28:53.400Z,21.50
2022-09-22T17:31:23.493Z,21.40
2022-09-22T17:33:52.422Z,21.50
2022-09-22T17:36:23.887Z,21.40
2022-09-22T17:38:53.882Z,21.40
2022-09-22T17:41:23.512Z,21.40
2022-09-22T17:43:57.191Z,21.30
2022-09-22T17:46:26.373Z,21.30
2022-09-22T17:49:11.974Z,21.30
2022-09-22T17:51:59.409Z,21.30
2022-09-22T17:54:46.307Z,21.30
2022-09-22T17:57:15.988Z,21.30
2022-09-22T17:59:46.043Z,21.20
2022-09-22T18:02:15.357Z,21.20
2022-09-22T18:04:44.106Z,21.20
2022-09-22T18:07:15.708Z,21.20
2022-09-22T18:09:43.679Z,21.20
2022-09-22T18:12:13.427Z,21.20
2022-09-22T18:14:42.383Z,21.10
2022-09-22T18:17:12.743Z,21.10
2022-09-22T18:19:42.054Z,21.10
2022-09-22T18:22:14.082Z,21.00
2022-09-22T18:24:42.704Z,21.00
2022-09-22T18:27:11.827Z,21.00
2022-09-22T18:29:39.844Z,20.90
2022-09-22T18:32:07.709Z,20.90
2022-09-22T18:34:37.569Z,20.90
2022-09-22T18:37:05.904Z,20.90
2022-09-22T18:39:34.052Z,20.90
2022-09-22T18:42:02.123Z,20.90
2022-09-22T18:44:30.001Z,20.90
2022-09-22T18:47:01.131Z,20.90
2022-09-22T18:49:32.005Z,20.90
2022-09-22T18:52:02.513Z,20.90
2022-09-22T18:54:31.318Z,20.80
2022-09-22T18:56:59.245Z,20.80
2022-09-22T18:59:28.218Z,20.70
2022-09-22T19:01:56.175Z,20.70
2022-09-22T19:04:26.842Z,20.80
2022-09-22T19:07:28.181Z,20.80
2022-09-22T19:09:57.351Z,20.70
2022-09-22T19:12:25.259Z,20.70
2022-09-22T19:14:54.424Z,20.60
2022-09-22T19:17:24.342Z,20.50
2022-09-22T19:19:52.182Z,20.50
2022-09-22T19:22:22.716Z,20.50
2022-09-22T19:24:50.846Z,20.50
2022-09-22T19:27:22.815Z,20.40
2022-09-22T19:29:51.735Z,20.40
2022-09-22T19:32:19.637Z,20.40
2022-09-22T19:34:47.574Z,20.20
2022-09-22T19:37:15.460Z,20.20
2022-09-22T19:39:43.953Z,20.20
2022-09-22T19:42:11.850Z,20.20
2022-09-22T19:44:41.076Z,20.20
2022-09-22T19:47:09.011Z,20.30
2022-09-22T19:49:37.185Z,20.30
2022-09-22T19:52:05.076Z,20.30
2022-09-22T19:54:32.946Z,20.30
2022-09-22T19:57:00.790Z,20.20
2022-09-22T19:59:29.526Z,20.20
2022-09-22T20:01:58.796Z,20.10
2022-09-22T20:04:27.063Z,20.10
2022-09-22T20:06:54.910Z,20.10
2022-09-22T20:09:22.774Z,20.10
2022-09-22T20:11:52.912Z,20.10
2022-09-22T20:14:25.194Z,20.00
2022-09-22T20:16:54.499Z,20.00
2022-09-22T20:19:25.525Z,19.90
2022-09-22T20:21:54.909Z,19.80
2022-09-22T20:24:23.960Z,19.80
2022-09-22T20:26:53.820Z,20.00
2022-09-22T20:29:21.804Z,20.20
2022-09-22T20:31:49.802Z,20.20
2022-09-22T20:34:19.684Z,19.90
2022-09-22T20:36:49.039Z,19.60
2022-09-22T20:39:17.036Z,19.40
2022-09-22T20:41:45.131Z,19.30
2022-09-22T20:44:14.723Z,19.20
2022-09-22T20:46:43.467Z,19.00
2022-09-22T20:49:13.830Z,19.00
2022-09-22T20:51:42.159Z,18.90
2022-09-22T20:54:11.522Z,18.90
2022-09-22T20:56:42.820Z,18.90
2022-09-22T20:59:11.360Z,18.90
2022-09-22T21:01:39.364Z,18.90
2022-09-22T21:04:07.632Z,18.80
2022-09-22T21:06:35.682Z,18.80
2022-09-22T21:09:21.258Z,18.80
2022-09-22T21:11:50.712Z,18.80
2022-09-22T21:14:18.688Z,18.60
2022-09-22T21:16:50.226Z,18.70
2022-09-22T21:19:18.515Z,18.70
2022-09-22T21:21:46.481Z,18.80
2022-09-22T21:24:14.744Z,18.80
2022-09-22T21:26:42.724Z,18.80
2022-09-22T21:29:12.095Z,18.40
2022-09-22T21:31:40.105Z,18.40
2022-09-22T21:34:08.592Z,18.40
2022-09-22T21:36:36.592Z,18.50
2022-09-22T21:39:04.799Z,18.40
2022-09-22T21:41:33.074Z,18.40
2022-09-22T21:44:01.316Z,18.40
2022-09-22T21:46:31.475Z,18.50
2022-09-22T21:49:01.415Z,18.50
2022-09-22T21:51:31.047Z,18.40
2022-09-22T21:53:58.886Z,18.40
2022-09-22T21:56:26.954Z,18.30
2022-09-22T21:58:55.882Z,18.30
2022-09-22T22:01:26.500Z,18.20
2022-09-22T22:03:57.337Z,18.20
2022-09-22T22:06:27.469Z,18.20
2022-09-22T22:09:02.411Z,18.10
2022-09-22T22:11:33.570Z,18.10
2022-09-22T22:14:03.082Z,18.10
2022-09-22T22:16:33.196Z,18.10
2022-09-22T22:19:03.029Z,18.10
2022-09-22T22:21:31.896Z,18.00
2022-09-22T22:24:25.518Z,18.00
2022-09-22T22:26:56.782Z,18.00
2022-09-22T22:29:26.395Z,18.00
2022-09-22T22:31:54.930Z,17.80
2022-09-22T22:34:26.154Z,17.60
2022-09-22T22:36:54.463Z,17.40
2022-09-22T22:39:22.690Z,17.50
2022-09-22T22:41:50.888Z,17.50
2022-09-22T22:44:19.025Z,17.50
2022-09-22T22:46:47.369Z,17.40
2022-09-22T22:49:15.240Z,17.30
2022-09-22T22:51:44.736Z,17.30
2022-09-22T22:54:13.301Z,17.20
2022-09-22T22:56:42.745Z,17.20
2022-09-22T22:59:11.131Z,17.20
2022-09-22T23:01:40.307Z,17.20
2022-09-22T23:04:11.020Z,17.20
2022-09-22T23:06:41.670Z,17.10
2022-09-22T23:09:12.878Z,17.00
2022-09-22T23:11:41.296Z,17.00
2022-09-22T23:14:11.308Z,17.00
2022-09-22T23:16:41.117Z,16.90
2022-09-22T23:19:12.336Z,16.90
2022-09-22T23:21:40.382Z,16.80
2022-09-22T23:24:10.512Z,16.90
2022-09-22T23:26:38.404Z,16.90
2022-09-22T23:29:06.617Z,16.90
2022-09-22T23:31:34.735Z,16.90
2022-09-22T23:34:02.917Z,16.80
2022-09-22T23:36:30.885Z,16.80
2022-09-22T23:39:03.565Z,16.70
2022-09-22T23:41:34.325Z,16.80
2022-09-22T23:44:03.400Z,16.80
2022-09-22T23:46:31.735Z,16.80
2022-09-22T23:49:00.699Z,16.80
2022-09-22T23:51:28.578Z,16.80
2022-09-22T23:53:57.142Z,16.70
2022-09-22T23:56:25.055Z,16.70
2022-09-22T23:58:54.617Z,16.70
